Moody AFB, Georgia
Current Conditions -  °F | °C
As of 1:58 AM on Saturday 01 Nov 2014 (Local Time) from KVAD Reporting Station
Few Clouds Few Clouds  
Wind Chill: 55°   Ceiling: Unl
Heat Index: 55°   Visibility: 10mi
Dew Point: 43°   Wind: 13mph
Humidity: 65%   Direction: 310°NW
Pressure: 29.9"   Gusts: NA
Location:  30.9753°N, 83.2042°W
Report Text: KVAD 010558Z AUTO 31011KT 10SM FEW080 13/06 A2990 RMK AO2 SLP127 60000 T01270063 10166 20124 50000 $
Loading
Personal Weather Stations






























Interactive Weather Map
Tropical Storm Tracking
New forecast layout! Learn more

10-Day Weather Forecast

Advertisements
Track Severe Weather on mobile